createdAt,value
2019-02-25T00:01:43.730Z,98831.69
2019-02-25T00:04:09.587Z,98832.88
2019-02-25T00:06:35.514Z,98828.48
2019-02-25T00:09:01.375Z,98835.31
2019-02-25T00:11:27.258Z,98831.27
2019-02-25T00:13:53.128Z,98827.56
2019-02-25T00:17:00.619Z,98827.87
2019-02-25T00:19:26.479Z,98831.62
2019-02-25T00:21:52.316Z,98834.89
2019-02-25T00:24:18.155Z,98836.23
2019-02-25T00:26:44.003Z,98842.00
2019-02-25T00:29:09.848Z,98840.03
2019-02-25T00:31:35.702Z,98842.13
2019-02-25T00:34:01.563Z,98844.95
2019-02-25T00:36:27.448Z,98843.88
2019-02-25T00:38:53.326Z,98849.09
2019-02-25T00:41:19.229Z,98857.80
2019-02-25T00:43:45.147Z,98851.30
2019-02-25T00:46:11.027Z,98846.02
2019-02-25T00:48:36.854Z,98854.62
2019-02-25T00:51:02.718Z,98846.97
2019-02-25T00:53:28.555Z,98848.59
2019-02-25T00:55:54.390Z,98846.58
2019-02-25T00:58:20.342Z,98851.30
2019-02-25T01:00:46.193Z,98852.44
2019-02-25T01:03:12.067Z,98854.90
2019-02-25T01:05:37.998Z,98855.98
2019-02-25T01:10:38.063Z,98842.94
2019-02-25T01:13:04.034Z,98847.23
2019-02-25T01:15:29.853Z,98843.14
2019-02-25T01:17:55.749Z,98846.47
2019-02-25T01:20:21.609Z,98851.84
2019-02-25T01:22:47.545Z,98844.86
2019-02-25T01:25:55.311Z,98844.66
2019-02-25T01:28:21.174Z,98852.44
2019-02-25T01:31:06.895Z,98845.55
2019-02-25T01:33:32.754Z,98845.55
2019-02-25T01:35:58.592Z,98850.23
2019-02-25T01:38:24.449Z,98841.63
2019-02-25T01:40:50.291Z,98834.19
2019-02-25T01:43:16.133Z,98840.48
2019-02-25T01:45:42.001Z,98835.34
2019-02-25T01:48:07.826Z,98836.48
2019-02-25T01:50:33.740Z,98837.71
2019-02-25T01:52:59.613Z,98826.87
2019-02-25T01:55:25.460Z,98822.50
2019-02-25T01:57:51.276Z,98821.19
2019-02-25T02:00:58.799Z,98825.93
2019-02-25T02:03:24.646Z,98832.78
2019-02-25T02:05:50.481Z,98837.28
2019-02-25T02:08:16.301Z,98833.86
2019-02-25T02:10:42.130Z,98841.08
2019-02-25T02:13:14.248Z,98840.00
2019-02-25T02:15:35.724Z,98838.27
2019-02-25T02:18:01.552Z,98840.63
2019-02-25T02:20:27.450Z,98835.89
2019-02-25T02:22:53.293Z,98838.70
2019-02-25T02:25:19.123Z,98831.27
2019-02-25T02:27:44.957Z,98825.31
2019-02-25T02:30:30.652Z,98829.20
2019-02-25T02:32:56.478Z,98825.71
2019-02-25T02:35:22.332Z,98822.33
2019-02-25T02:37:48.153Z,98823.58
2019-02-25T02:40:14.208Z,98818.64
2019-02-25T02:43:00.114Z,98815.74
2019-02-25T02:46:05.702Z,98810.66
2019-02-25T02:49:13.175Z,98807.09
2019-02-25T02:51:39.018Z,98800.77
2019-02-25T02:54:04.846Z,98791.12
2019-02-25T02:56:30.687Z,98791.82
2019-02-25T02:58:56.510Z,98788.22
2019-02-25T03:01:22.365Z,98797.09
2019-02-25T03:03:48.202Z,98796.25
2019-02-25T03:06:14.066Z,98792.15
2019-02-25T03:08:39.900Z,98794.47
2019-02-25T03:11:05.715Z,98789.69
2019-02-25T03:13:31.560Z,98793.17
2019-02-25T03:15:57.384Z,98797.64
2019-02-25T03:18:23.242Z,98804.84
2019-02-25T03:20:49.060Z,98800.96
2019-02-25T03:23:14.892Z,98800.67
2019-02-25T03:25:40.740Z,98807.45
2019-02-25T03:28:06.555Z,98808.73
2019-02-25T03:30:32.397Z,98813.28
2019-02-25T03:32:58.299Z,98810.90
2019-02-25T03:35:24.125Z,98807.02
2019-02-25T03:37:49.966Z,98809.48
2019-02-25T03:40:57.458Z,98816.80
2019-02-25T03:43:23.441Z,98813.59
2019-02-25T03:45:49.274Z,98818.59
2019-02-25T03:48:15.100Z,98816.35
2019-02-25T03:50:40.934Z,98819.58
2019-02-25T03:53:06.760Z,98817.55
2019-02-25T03:55:32.588Z,98820.94
2019-02-25T03:57:58.396Z,98828.16
2019-02-25T04:01:05.894Z,98829.81
2019-02-25T04:03:31.923Z,98831.09
2019-02-25T04:05:57.749Z,98832.52
2019-02-25T04:08:23.657Z,98823.27
2019-02-25T04:10:49.491Z,98825.36
2019-02-25T04:13:15.302Z,98824.77
2019-02-25T04:18:14.778Z,98820.75
2019-02-25T04:20:40.717Z,98812.42
2019-02-25T04:23:06.526Z,98811.31
2019-02-25T04:25:32.361Z,98812.79
2019-02-25T04:27:58.187Z,98803.73
2019-02-25T04:30:24.020Z,98802.20
2019-02-25T04:32:49.867Z,98801.34
2019-02-25T04:35:15.676Z,98803.84
2019-02-25T04:37:41.615Z,98804.16
2019-02-25T04:40:49.181Z,98793.98
2019-02-25T04:43:15.037Z,98797.02
2019-02-25T04:45:40.857Z,98795.55
2019-02-25T04:48:06.690Z,98804.80
2019-02-25T04:50:32.520Z,98806.65
2019-02-25T04:52:58.418Z,98815.28
2019-02-25T04:55:24.241Z,98821.22
2019-02-25T04:57:50.108Z,98818.94
2019-02-25T05:00:57.580Z,98819.01
2019-02-25T05:03:23.406Z,98821.43
2019-02-25T05:05:49.232Z,98821.15
2019-02-25T05:08:15.091Z,98821.14
2019-02-25T05:10:40.885Z,98815.69
2019-02-25T05:15:40.383Z,98816.07
2019-02-25T05:18:06.209Z,98818.56
2019-02-25T05:20:32.019Z,98811.97
2019-02-25T05:22:57.861Z,98816.10
2019-02-25T05:25:23.690Z,98821.38
2019-02-25T05:27:49.527Z,98817.00
2019-02-25T05:30:57.021Z,98821.64
2019-02-25T05:33:22.877Z,98819.06
2019-02-25T05:35:48.985Z,98820.75
2019-02-25T05:38:14.819Z,98815.58
2019-02-25T05:40:40.641Z,98815.52
2019-02-25T05:43:06.485Z,98818.36
2019-02-25T05:45:32.321Z,98813.07
2019-02-25T05:47:58.148Z,98807.86
2019-02-25T05:50:23.985Z,98805.28
2019-02-25T05:52:49.833Z,98796.32
2019-02-25T05:58:09.767Z,98795.02
2019-02-25T06:03:09.591Z,98797.17
2019-02-25T06:05:35.442Z,98806.80
2019-02-25T06:08:01.257Z,98800.88
2019-02-25T06:10:27.091Z,98812.64
2019-02-25T06:12:52.930Z,98813.44
2019-02-25T06:16:00.416Z,98818.66
2019-02-25T06:18:26.271Z,98806.57
2019-02-25T06:20:52.105Z,98814.95
2019-02-25T06:23:17.930Z,98809.03
2019-02-25T06:25:43.773Z,98807.20
2019-02-25T06:28:09.598Z,98814.95
2019-02-25T06:30:35.417Z,98819.37
2019-02-25T06:33:01.260Z,98810.18
2019-02-25T06:35:27.079Z,98817.14
2019-02-25T06:37:52.930Z,98822.17
2019-02-25T06:41:00.401Z,98831.00
2019-02-25T06:43:26.223Z,98830.13
2019-02-25T06:45:52.112Z,98831.92
2019-02-25T06:48:17.867Z,98827.03
2019-02-25T06:50:43.710Z,98822.09
2019-02-25T06:53:09.538Z,98816.20
2019-02-25T06:55:35.379Z,98812.09
2019-02-25T06:58:01.205Z,98818.69
2019-02-25T07:00:27.057Z,98811.08
2019-02-25T07:02:52.903Z,98813.21
2019-02-25T07:05:38.618Z,98823.95
2019-02-25T07:08:24.315Z,98811.87
2019-02-25T07:11:10.038Z,98816.78
2019-02-25T07:13:55.735Z,98822.27
2019-02-25T07:16:41.463Z,98821.47
2019-02-25T07:19:27.166Z,98820.20
2019-02-25T07:30:01.319Z,98821.80
2019-02-25T07:32:47.004Z,98817.73
2019-02-25T07:35:32.828Z,98821.84
2019-02-25T07:38:18.547Z,98818.59
2019-02-25T07:48:59.165Z,98825.81
2019-02-25T07:51:44.857Z,98824.36
2019-02-25T07:54:30.574Z,98820.19
2019-02-25T07:57:16.280Z,98819.15
2019-02-25T08:00:02.259Z,98828.55
2019-02-25T08:02:47.970Z,98831.69
2019-02-25T08:05:33.692Z,98832.91
2019-02-25T08:10:53.234Z,98836.59
2019-02-25T08:19:00.029Z,98841.17
2019-02-25T08:21:45.728Z,98836.34
2019-02-25T08:24:31.457Z,98843.88
2019-02-25T08:27:17.164Z,98837.88
2019-02-25T08:30:02.888Z,98832.63
2019-02-25T08:32:48.863Z,98834.44
2019-02-25T08:35:56.395Z,98838.64
2019-02-25T08:41:49.400Z,98842.67
2019-02-25T08:44:35.103Z,98850.56
2019-02-25T08:47:20.833Z,98795.19
2019-02-25T08:52:34.293Z,98847.59
2019-02-25T08:55:00.327Z,98851.79
2019-02-25T08:57:27.871Z,98846.97
2019-02-25T08:59:53.710Z,98855.20
2019-02-25T09:02:19.549Z,98849.06
2019-02-25T09:04:45.373Z,98849.31
2019-02-25T09:07:11.211Z,98853.58
2019-02-25T09:09:37.038Z,98860.93
2019-02-25T09:12:02.875Z,98859.26
2019-02-25T09:14:28.700Z,98856.52
2019-02-25T09:16:54.864Z,98856.42
2019-02-25T09:19:20.705Z,98848.39
2019-02-25T09:21:46.513Z,98837.20
2019-02-25T09:24:12.347Z,98844.48
2019-02-25T09:26:38.179Z,98844.41
2019-02-25T09:29:04.028Z,98844.44
2019-02-25T09:31:29.843Z,98850.92
2019-02-25T09:33:55.658Z,98854.05
2019-02-25T09:36:21.487Z,98844.83
2019-02-25T09:38:47.644Z,98855.51
2019-02-25T09:41:13.469Z,98849.70
2019-02-25T09:43:39.297Z,98855.80
2019-02-25T09:46:05.115Z,98852.77
2019-02-25T09:48:30.941Z,98844.53
2019-02-25T09:50:56.775Z,98845.69
2019-02-25T09:53:22.611Z,98842.63
2019-02-25T09:55:48.429Z,98843.63
2019-02-25T09:58:14.240Z,98849.48
2019-02-25T10:00:40.101Z,98846.84
2019-02-25T10:03:05.936Z,98852.52
2019-02-25T10:05:31.826Z,98849.44
2019-02-25T10:07:57.606Z,98851.66
2019-02-25T10:10:23.472Z,98853.03
2019-02-25T10:12:49.277Z,98859.00
2019-02-25T10:15:56.751Z,98851.36
2019-02-25T10:18:22.558Z,98855.23
2019-02-25T10:20:48.427Z,98843.00
2019-02-25T10:23:14.246Z,98832.50
2019-02-25T10:25:40.111Z,98826.09
2019-02-25T10:28:05.961Z,98828.47
2019-02-25T10:30:34.392Z,98832.83
2019-02-25T10:33:00.892Z,98833.16
2019-02-25T10:36:09.730Z,98837.45
2019-02-25T10:38:37.481Z,98835.06
2019-02-25T10:41:03.347Z,98829.07
2019-02-25T10:43:29.684Z,98829.84
2019-02-25T10:46:17.666Z,98824.35
2019-02-25T10:49:11.205Z,98828.59
2019-02-25T10:51:31.175Z,98828.59
2019-02-25T10:53:57.009Z,98827.34
2019-02-25T10:57:04.482Z,98826.19
2019-02-25T10:59:32.145Z,98819.08
2019-02-25T11:01:58.137Z,98811.92
2019-02-25T11:04:26.100Z,98814.28
2019-02-25T11:06:51.693Z,98810.53
2019-02-25T11:09:59.208Z,98807.79
2019-02-25T11:13:06.707Z,98809.19
2019-02-25T11:15:52.522Z,98809.00
2019-02-25T11:18:20.259Z,98809.00
2019-02-25T11:21:08.296Z,98801.46
2019-02-25T11:23:53.660Z,98790.52
2019-02-25T11:26:19.490Z,98790.52
2019-02-25T11:28:45.377Z,98800.08
2019-02-25T11:31:31.173Z,98798.73
2019-02-25T11:34:16.903Z,98787.23
2019-02-25T11:37:02.611Z,98788.02
2019-02-25T11:39:48.331Z,98787.77
2019-02-25T11:42:16.454Z,98787.77
2019-02-25T11:45:04.427Z,98770.56
2019-02-25T11:47:49.818Z,98780.33
2019-02-25T11:50:57.315Z,98780.33
2019-02-25T11:53:23.144Z,98782.14
2019-02-25T11:55:48.981Z,98780.57
2019-02-25T11:58:14.811Z,98784.72
2019-02-25T12:00:40.650Z,98781.06
2019-02-25T12:03:06.501Z,98776.79
2019-02-25T12:05:32.321Z,98776.25
2019-02-25T12:07:58.173Z,98764.87
2019-02-25T12:10:23.983Z,98761.64
2019-02-25T12:12:49.820Z,98759.20
2019-02-25T12:15:57.305Z,98753.42
2019-02-25T12:18:23.185Z,98756.44
2019-02-25T12:20:49.020Z,98743.95
2019-02-25T12:23:14.868Z,98742.66
2019-02-25T12:25:40.690Z,98745.08
2019-02-25T12:28:06.523Z,98734.92
2019-02-25T12:30:32.361Z,98726.80
2019-02-25T12:32:58.187Z,98724.36
2019-02-25T12:35:24.009Z,98722.48
2019-02-25T12:37:49.864Z,98716.92
2019-02-25T12:40:57.360Z,98712.22
2019-02-25T12:43:23.266Z,98708.00
2019-02-25T12:45:49.095Z,98715.88
2019-02-25T12:48:14.965Z,98711.30
2019-02-25T12:50:40.882Z,98705.37
2019-02-25T12:53:06.695Z,98705.28
2019-02-25T12:58:11.833Z,98704.50
2019-02-25T13:00:37.713Z,98695.73
2019-02-25T13:03:03.534Z,98692.05
2019-02-25T13:05:29.375Z,98689.27
2019-02-25T13:07:55.240Z,98689.95
2019-02-25T13:10:21.110Z,98687.98
2019-02-25T13:12:47.047Z,98686.77
2019-02-25T13:15:54.544Z,98692.83
2019-02-25T13:18:20.365Z,98683.17
2019-02-25T13:20:46.232Z,98671.28
2019-02-25T13:23:12.098Z,98663.06
2019-02-25T13:25:38.029Z,98645.73
2019-02-25T13:28:04.262Z,98653.16
2019-02-25T13:30:31.612Z,98651.00
2019-02-25T13:32:57.444Z,98642.97
2019-02-25T13:35:23.305Z,98639.55
2019-02-25T13:37:49.180Z,98632.31
2019-02-25T13:40:56.694Z,98630.37
2019-02-25T13:43:22.637Z,98626.64
2019-02-25T13:45:48.560Z,98622.63
2019-02-25T13:48:14.445Z,98614.69
2019-02-25T13:50:40.265Z,98617.03
2019-02-25T13:53:06.132Z,98615.73
2019-02-25T13:55:31.960Z,98614.09
2019-02-25T13:57:59.755Z,98611.83
2019-02-25T14:01:07.234Z,98613.62
2019-02-25T14:03:33.062Z,98614.22
2019-02-25T14:05:58.931Z,98607.09
2019-02-25T14:08:26.806Z,98600.97
2019-02-25T14:10:52.674Z,98598.21
2019-02-25T14:13:18.558Z,98594.25
2019-02-25T14:15:44.373Z,98589.11
2019-02-25T14:18:10.225Z,98589.86
2019-02-25T14:20:36.138Z,98593.33
2019-02-25T14:23:01.978Z,98589.05
2019-02-25T14:26:09.497Z,98594.41
2019-02-25T14:28:35.381Z,98585.70
2019-02-25T14:31:01.304Z,98584.55
2019-02-25T14:33:27.159Z,98591.44
2019-02-25T14:35:54.975Z,98591.67
2019-02-25T14:38:30.009Z,98588.99
2019-02-25T14:40:56.778Z,98579.86
2019-02-25T14:43:25.447Z,98577.44
2019-02-25T14:45:54.433Z,98573.63
2019-02-25T14:48:21.026Z,98564.28
2019-02-25T14:50:47.739Z,98563.93
2019-02-25T14:53:55.254Z,98567.70
2019-02-25T14:56:21.155Z,98564.41
2019-02-25T14:58:48.952Z,98562.63
2019-02-25T15:01:14.818Z,98562.91
2019-02-25T15:03:40.703Z,98563.81
2019-02-25T15:06:06.556Z,98559.40
2019-02-25T15:08:32.419Z,98564.88
2019-02-25T15:11:01.985Z,98564.84
2019-02-25T15:13:28.070Z,98555.91
2019-02-25T15:16:35.667Z,98562.34
2019-02-25T15:21:50.109Z,98559.13
2019-02-25T15:24:16.610Z,98553.67
2019-02-25T15:26:43.333Z,98556.67
2019-02-25T15:31:57.026Z,98557.66
2019-02-25T15:34:23.494Z,98555.73
2019-02-25T15:36:49.336Z,98556.16
2019-02-25T15:42:02.721Z,98553.06
2019-02-25T15:44:28.537Z,98558.65
2019-02-25T15:46:54.376Z,98559.41
2019-02-25T15:49:21.736Z,98550.45
2019-02-25T15:51:48.041Z,98550.74
2019-02-25T15:54:35.020Z,98555.66
2019-02-25T15:57:01.579Z,98556.41
2019-02-25T15:59:32.129Z,98557.85
2019-02-25T16:01:55.278Z,98550.17
2019-02-25T16:04:21.084Z,98553.46
2019-02-25T16:09:23.775Z,98558.77
2019-02-25T16:12:31.438Z,98555.00
2019-02-25T16:14:57.664Z,98555.57
2019-02-25T16:17:24.367Z,98558.48
2019-02-25T16:23:07.668Z,98554.91
2019-02-25T16:25:34.467Z,98549.12
2019-02-25T16:28:01.494Z,98551.27
2019-02-25T16:30:30.497Z,98542.08
2019-02-25T16:32:55.135Z,98541.69
2019-02-25T16:35:21.177Z,98539.13
2019-02-25T16:37:50.848Z,98549.91
2019-02-25T16:40:58.679Z,98547.40
2019-02-25T16:43:25.828Z,98554.63
2019-02-25T16:45:51.671Z,98559.03
2019-02-25T16:48:19.022Z,98558.55
2019-02-25T16:50:46.449Z,98559.67
2019-02-25T16:53:15.549Z,98562.46
2019-02-25T16:55:42.747Z,98564.08
2019-02-25T16:58:29.893Z,98563.58
2019-02-25T17:00:58.551Z,98563.58
2019-02-25T17:03:45.927Z,98557.23
2019-02-25T17:06:55.197Z,98560.42
2019-02-25T17:11:59.783Z,98556.40
2019-02-25T17:14:26.314Z,98557.95
2019-02-25T17:17:12.020Z,98565.73
2019-02-25T17:19:38.513Z,98557.58
2019-02-25T17:22:05.632Z,98557.58
2019-02-25T17:24:32.621Z,98551.50
2019-02-25T17:27:00.047Z,98567.00
2019-02-25T17:29:46.911Z,98563.03
2019-02-25T17:32:14.460Z,98563.03
2019-02-25T17:34:41.482Z,98557.61
2019-02-25T17:37:10.266Z,98558.12
2019-02-25T17:39:37.713Z,98557.29
2019-02-25T17:42:05.606Z,98559.83
2019-02-25T17:44:32.125Z,98556.72
2019-02-25T17:47:00.216Z,98556.84
2019-02-25T17:49:46.953Z,98558.81
2019-02-25T17:52:14.207Z,98558.81
2019-02-25T17:55:01.517Z,98552.09
2019-02-25T17:57:50.299Z,98558.23
2019-02-25T18:00:56.568Z,98554.71
2019-02-25T18:03:44.373Z,98550.06
2019-02-25T18:06:11.280Z,98550.06
2019-02-25T18:08:37.742Z,98549.48
2019-02-25T18:11:04.995Z,98559.87
2019-02-25T18:13:51.270Z,98566.70
2019-02-25T18:16:19.074Z,98566.70
2019-02-25T18:18:47.466Z,98569.22
2019-02-25T18:21:14.070Z,98572.77
2019-02-25T18:23:40.011Z,98577.91
2019-02-25T18:26:05.930Z,98571.92
2019-02-25T18:28:31.767Z,98568.28
2019-02-25T18:31:19.386Z,98566.97
2019-02-25T18:34:06.785Z,98556.12
2019-02-25T18:36:33.291Z,98556.12
2019-02-25T18:39:21.375Z,98559.62
2019-02-25T18:42:09.616Z,98558.89
2019-02-25T18:44:55.907Z,98544.95
2019-02-25T18:47:23.425Z,98544.95
2019-02-25T18:50:31.173Z,98544.95
2019-02-25T18:53:38.683Z,98544.95
2019-02-25T18:56:46.178Z,98559.66
2019-02-25T18:59:54.788Z,98560.84
2019-02-25T19:02:21.656Z,98550.08
2019-02-25T19:04:47.517Z,98556.39
2019-02-25T19:07:15.390Z,98553.17
2019-02-25T19:09:43.033Z,98553.58
2019-02-25T19:12:08.965Z,98559.69
2019-02-25T19:14:34.786Z,98563.17
2019-02-25T19:17:02.149Z,98555.53
2019-02-25T19:19:28.474Z,98562.43
2019-02-25T19:22:15.805Z,98566.95
2019-02-25T19:24:42.836Z,98565.58
2019-02-25T19:27:10.972Z,98567.82
2019-02-25T19:29:37.755Z,98568.27
2019-02-25T19:32:03.591Z,98572.70
2019-02-25T19:34:51.734Z,98569.28
2019-02-25T19:37:17.140Z,98575.59
2019-02-25T19:39:46.795Z,98571.75
2019-02-25T19:42:15.589Z,98572.02
2019-02-25T19:44:40.711Z,98571.45
2019-02-25T19:47:07.938Z,98573.16
2019-02-25T19:49:36.603Z,98568.60
2019-02-25T19:52:02.110Z,98576.22
2019-02-25T19:54:29.522Z,98567.36
2019-02-25T19:56:57.866Z,98559.27
2019-02-25T19:59:24.155Z,98566.39
2019-02-25T20:01:51.306Z,98565.86
2019-02-25T20:04:18.827Z,98573.64
2019-02-25T20:06:47.148Z,98571.17
2019-02-25T20:12:01.853Z,98574.19
2019-02-25T20:14:31.225Z,98577.82
2019-02-25T20:16:56.051Z,98567.95
2019-02-25T20:19:21.983Z,98561.98
2019-02-25T20:21:48.657Z,98559.67
2019-02-25T20:24:16.935Z,98563.38
2019-02-25T20:26:43.324Z,98562.55
2019-02-25T20:29:11.067Z,98558.79
2019-02-25T20:31:36.907Z,98558.20
2019-02-25T20:34:02.777Z,98562.70
2019-02-25T20:36:30.546Z,98557.25
2019-02-25T20:38:56.316Z,98545.59
2019-02-25T20:41:22.768Z,98548.10
2019-02-25T20:43:53.937Z,98545.65
2019-02-25T20:46:19.956Z,98549.98
2019-02-25T20:48:48.391Z,98555.72
2019-02-25T20:51:13.221Z,98552.24
2019-02-25T20:53:39.108Z,98549.56
2019-02-25T20:56:04.944Z,98548.20
2019-02-25T20:58:30.761Z,98544.92
2019-02-25T21:00:56.639Z,98544.01
2019-02-25T21:03:23.173Z,98538.83
2019-02-25T21:05:50.220Z,98541.31
2019-02-25T21:11:08.636Z,98553.83
2019-02-25T21:13:31.794Z,98552.91
2019-02-25T21:16:00.979Z,98547.99
2019-02-25T21:18:28.839Z,98539.50
2019-02-25T21:20:54.470Z,98551.62
2019-02-25T21:23:20.309Z,98562.05
2019-02-25T21:25:46.134Z,98559.34
2019-02-25T21:28:11.942Z,98557.53
2019-02-25T21:30:41.184Z,98554.56
2019-02-25T21:33:05.547Z,98563.70
2019-02-25T21:35:35.398Z,98560.80
2019-02-25T21:37:59.121Z,98560.61
2019-02-25T21:40:27.830Z,98567.16
2019-02-25T21:42:53.926Z,98566.30
2019-02-25T21:45:22.423Z,98563.84
2019-02-25T21:47:52.279Z,98567.53
2019-02-25T21:51:01.389Z,98564.27
2019-02-25T21:53:25.888Z,98568.94
2019-02-25T21:55:53.502Z,98572.58
2019-02-25T21:58:21.276Z,98568.38
2019-02-25T22:00:47.329Z,98571.39
2019-02-25T22:03:15.683Z,98574.05
2019-02-25T22:05:40.923Z,98569.34
2019-02-25T22:08:28.920Z,98572.36
2019-02-25T22:10:54.890Z,98579.00
2019-02-25T22:13:20.973Z,98571.61
2019-02-25T22:15:48.692Z,98563.70
2019-02-25T22:20:47.544Z,98558.86
2019-02-25T22:23:14.075Z,98564.02
2019-02-25T22:25:39.918Z,98561.17
2019-02-25T22:28:07.578Z,98555.81
2019-02-25T22:30:33.591Z,98551.13
2019-02-25T22:33:00.689Z,98553.70
2019-02-25T22:35:27.174Z,98558.86
2019-02-25T22:37:55.617Z,98557.75
2019-02-25T22:40:20.763Z,98555.75
2019-02-25T22:42:47.903Z,98559.29
2019-02-25T22:45:35.927Z,98553.95
2019-02-25T22:48:01.916Z,98563.69
2019-02-25T22:50:29.203Z,98564.04
2019-02-25T22:52:58.308Z,98558.91
2019-02-25T22:55:23.244Z,98555.25
2019-02-25T22:57:51.197Z,98553.94
2019-02-25T23:00:58.860Z,98554.06
2019-02-25T23:06:01.766Z,98560.81
2019-02-25T23:08:27.593Z,98562.11
2019-02-25T23:10:54.163Z,98561.39
2019-02-25T23:13:22.698Z,98558.81
2019-02-25T23:15:49.553Z,98559.20
2019-02-25T23:18:18.862Z,98567.59
2019-02-25T23:20:44.416Z,98566.20
2019-02-25T23:23:10.229Z,98556.14
2019-02-25T23:25:36.071Z,98555.08
2019-02-25T23:28:02.273Z,98557.26
2019-02-25T23:30:29.651Z,98551.72
2019-02-25T23:32:55.487Z,98548.83
2019-02-25T23:35:23.082Z,98542.24
2019-02-25T23:37:51.040Z,98537.66
2019-02-25T23:40:16.973Z,98533.92
2019-02-25T23:42:44.292Z,98540.09
2019-02-25T23:45:52.251Z,98533.36
2019-02-25T23:48:18.093Z,98528.86
2019-02-25T23:50:44.264Z,98528.81
2019-02-25T23:53:10.121Z,98519.00
2019-02-25T23:55:35.969Z,98518.61
2019-02-25T23:58:01.808Z,98515.59
